createdAt,value
2017-08-05T00:00:00.214Z,67.13
2017-08-05T00:02:26.848Z,67.18
2017-08-05T00:04:53.306Z,67.18
2017-08-05T00:07:19.727Z,67.30
2017-08-05T00:09:46.165Z,67.51
2017-08-05T00:12:13.548Z,67.56
2017-08-05T00:14:39.940Z,67.54
2017-08-05T00:17:06.420Z,67.65
2017-08-05T00:19:32.788Z,67.65
2017-08-05T00:21:59.268Z,67.71
2017-08-05T00:24:25.750Z,67.88
2017-08-05T00:26:52.169Z,67.97
2017-08-05T00:29:18.570Z,67.96
2017-08-05T00:31:45.039Z,68.02
2017-08-05T00:34:11.464Z,68.32
2017-08-05T00:36:37.887Z,68.37
2017-08-05T00:39:05.224Z,68.42
2017-08-05T00:41:31.700Z,68.42
2017-08-05T00:43:58.919Z,68.57
2017-08-05T00:46:25.393Z,68.52
2017-08-05T00:48:51.786Z,68.64
2017-08-05T00:51:18.213Z,68.49
2017-08-05T00:53:44.663Z,68.64
2017-08-05T00:56:11.116Z,68.81
2017-08-05T00:58:37.521Z,68.87
2017-08-05T01:01:03.985Z,68.93
2017-08-05T01:03:30.429Z,68.95
2017-08-05T01:05:56.876Z,68.87
2017-08-05T01:08:23.341Z,68.99
2017-08-05T01:10:49.882Z,68.90
2017-08-05T01:13:16.407Z,69.07
2017-08-05T01:15:42.779Z,69.29
2017-08-05T01:18:10.031Z,69.33
2017-08-05T01:20:36.523Z,69.30
2017-08-05T01:23:04.102Z,69.33
2017-08-05T01:25:30.601Z,69.26
2017-08-05T01:27:57.014Z,69.45
2017-08-05T01:30:23.402Z,69.43
2017-08-05T01:32:49.853Z,69.41
2017-08-05T01:35:16.509Z,69.43
2017-08-05T01:37:42.939Z,69.47
2017-08-05T01:40:10.388Z,69.60
2017-08-05T01:42:37.180Z,69.69
2017-08-05T01:45:03.633Z,69.85
2017-08-05T01:47:30.196Z,69.81
2017-08-05T01:49:57.706Z,69.59
2017-08-05T01:52:24.180Z,69.79
2017-08-05T01:54:50.590Z,69.74
2017-08-05T01:57:17.013Z,69.76
2017-08-05T01:59:43.497Z,69.88
2017-08-05T02:02:10.005Z,69.87
2017-08-05T02:04:36.446Z,70.00
2017-08-05T02:07:02.831Z,69.99
2017-08-05T02:09:29.269Z,70.11
2017-08-05T02:11:55.691Z,70.14
2017-08-05T02:14:22.160Z,70.14
2017-08-05T02:16:48.532Z,70.36
2017-08-05T02:19:14.973Z,70.45
2017-08-05T02:21:41.514Z,70.37
2017-08-05T02:24:07.944Z,70.68
2017-08-05T02:26:34.387Z,71.01
2017-08-05T02:29:00.842Z,70.81
2017-08-05T02:31:27.255Z,70.72
2017-08-05T02:33:54.181Z,70.82
2017-08-05T02:36:20.604Z,71.02
2017-08-05T02:38:46.995Z,70.88
2017-08-05T02:41:13.470Z,71.10
2017-08-05T02:43:40.849Z,71.17
2017-08-05T02:46:07.250Z,71.28
2017-08-05T02:48:33.672Z,71.19
2017-08-05T02:51:00.211Z,71.22
2017-08-05T02:53:26.722Z,71.28
2017-08-05T02:55:53.155Z,71.66
2017-08-05T02:58:19.645Z,71.72
2017-08-05T03:00:46.084Z,71.46
2017-08-05T03:03:12.605Z,71.71
2017-08-05T03:05:39.072Z,71.64
2017-08-05T03:08:05.490Z,71.86
2017-08-05T03:10:32.828Z,71.83
2017-08-05T03:13:03.475Z,71.83
2017-08-05T03:15:29.902Z,71.62
2017-08-05T03:17:56.339Z,71.73
2017-08-05T03:20:22.879Z,72.04
2017-08-05T03:22:49.445Z,72.31
2017-08-05T03:25:15.931Z,72.18
2017-08-05T03:27:42.402Z,72.42
2017-08-05T03:30:08.846Z,72.32
2017-08-05T03:32:35.402Z,72.22
2017-08-05T03:35:01.809Z,72.28
2017-08-05T03:37:28.328Z,72.31
2017-08-05T03:39:54.764Z,72.35
2017-08-05T03:42:21.266Z,72.40
2017-08-05T03:44:48.529Z,72.59
2017-08-05T03:47:15.087Z,72.68
2017-08-05T03:49:41.612Z,72.61
2017-08-05T03:52:08.080Z,72.38
2017-08-05T03:54:34.561Z,72.55
2017-08-05T03:57:00.995Z,72.68
2017-08-05T03:59:27.485Z,72.72
2017-08-05T04:01:54.825Z,72.66
2017-08-05T04:04:21.335Z,72.71
2017-08-05T04:06:47.806Z,72.93
2017-08-05T04:09:14.275Z,72.84
2017-08-05T04:11:40.853Z,72.87
2017-08-05T04:14:07.285Z,72.84
2017-08-05T04:16:33.731Z,72.91
2017-08-05T04:19:00.178Z,72.87
2017-08-05T04:21:26.628Z,72.83
2017-08-05T04:23:53.090Z,72.82
2017-08-05T04:26:19.583Z,73.08
2017-08-05T04:28:46.018Z,73.01
2017-08-05T04:31:12.598Z,72.94
2017-08-05T04:33:38.998Z,72.88
2017-08-05T04:36:05.495Z,73.14
2017-08-05T04:38:32.015Z,73.23
2017-08-05T04:40:58.407Z,73.25
2017-08-05T04:43:24.847Z,73.10
2017-08-05T04:45:51.308Z,73.30
2017-08-05T04:48:17.824Z,73.41
2017-08-05T04:50:44.266Z,73.24
2017-08-05T04:53:10.722Z,73.29
2017-08-05T04:55:37.157Z,73.08
2017-08-05T04:58:03.615Z,73.09
2017-08-05T05:00:30.126Z,73.50
2017-08-05T05:02:56.646Z,73.20
2017-08-05T05:05:23.953Z,73.22
2017-08-05T05:07:50.460Z,73.42
2017-08-05T05:10:16.883Z,73.22
2017-08-05T05:12:44.441Z,73.02
2017-08-05T05:15:11.750Z,73.03
2017-08-05T05:17:38.218Z,72.96
2017-08-05T05:20:04.665Z,73.03
2017-08-05T05:22:31.170Z,73.17
2017-08-05T05:24:57.832Z,72.87
2017-08-05T05:27:24.267Z,72.89
2017-08-05T05:29:50.778Z,73.00
2017-08-05T05:32:17.235Z,72.94
2017-08-05T05:34:43.843Z,72.85
2017-08-05T05:37:10.267Z,72.82
2017-08-05T05:39:36.785Z,72.94
2017-08-05T05:42:03.321Z,72.84
2017-08-05T05:44:29.853Z,72.72
2017-08-05T05:46:56.339Z,72.77
2017-08-05T05:49:22.809Z,72.71
2017-08-05T05:51:49.242Z,72.65
2017-08-05T05:54:16.229Z,72.69
2017-08-05T05:56:42.658Z,72.81
2017-08-05T05:59:09.087Z,72.88
2017-08-05T06:01:35.553Z,72.75
2017-08-05T06:04:02.125Z,72.72
2017-08-05T06:06:28.556Z,72.92
2017-08-05T06:08:55.050Z,72.94
2017-08-05T06:11:21.592Z,72.85
2017-08-05T06:13:48.051Z,72.86
2017-08-05T06:16:14.490Z,73.10
2017-08-05T06:18:41.297Z,72.94
2017-08-05T06:21:07.859Z,72.97
2017-08-05T06:23:34.392Z,73.13
2017-08-05T06:26:00.928Z,73.25
2017-08-05T06:28:28.370Z,73.32
2017-08-05T06:30:54.877Z,73.15
2017-08-05T06:33:21.319Z,73.17
2017-08-05T06:35:47.805Z,73.07
2017-08-05T06:38:14.361Z,73.18
2017-08-05T06:40:40.915Z,73.12
2017-08-05T06:43:07.334Z,73.18
2017-08-05T06:45:33.739Z,73.09
2017-08-05T06:48:00.260Z,73.01
2017-08-05T06:50:27.547Z,73.10
2017-08-05T06:52:54.901Z,73.03
2017-08-05T06:55:21.464Z,73.05
2017-08-05T06:57:47.886Z,73.00
2017-08-05T07:00:14.380Z,72.99
2017-08-05T07:02:40.802Z,73.13
2017-08-05T07:05:07.281Z,73.04
2017-08-05T07:07:33.834Z,72.97
2017-08-05T07:10:00.265Z,72.87
2017-08-05T07:12:26.714Z,72.84
2017-08-05T07:14:53.193Z,72.88
2017-08-05T07:17:19.694Z,72.79
2017-08-05T07:19:46.125Z,72.80
2017-08-05T07:22:12.668Z,72.63
2017-08-05T07:24:39.992Z,72.59
2017-08-05T07:27:06.441Z,72.56
2017-08-05T07:29:33.089Z,72.57
2017-08-05T07:31:59.590Z,72.56
2017-08-05T07:34:26.087Z,72.57
2017-08-05T07:36:52.534Z,72.43
2017-08-05T07:39:19.032Z,72.36
2017-08-05T07:41:45.571Z,72.24
2017-08-05T07:44:12.033Z,72.23
2017-08-05T07:46:38.824Z,72.19
2017-08-05T07:49:05.362Z,72.11
2017-08-05T07:51:32.343Z,72.17
2017-08-05T07:53:58.805Z,72.00
2017-08-05T07:56:25.212Z,71.91
2017-08-05T07:58:51.774Z,71.86
2017-08-05T08:01:18.193Z,71.79
2017-08-05T08:03:44.856Z,71.67
2017-08-05T08:06:11.309Z,71.52
2017-08-05T08:08:38.822Z,71.49
2017-08-05T08:11:05.317Z,71.37
2017-08-05T08:13:31.825Z,71.36
2017-08-05T08:15:58.307Z,71.29
2017-08-05T08:18:24.793Z,71.13
2017-08-05T08:20:51.478Z,71.04
2017-08-05T08:23:18.003Z,70.94
2017-08-05T08:25:44.500Z,70.82
2017-08-05T08:28:11.465Z,70.73
2017-08-05T08:30:37.879Z,70.63
2017-08-05T08:33:04.338Z,70.59
2017-08-05T08:35:30.791Z,70.50
2017-08-05T08:37:58.152Z,70.34
2017-08-05T08:40:24.652Z,70.33
2017-08-05T08:42:51.194Z,70.25
2017-08-05T08:45:18.592Z,70.18
2017-08-05T08:47:45.050Z,70.12
2017-08-05T08:50:11.579Z,69.99
2017-08-05T08:52:38.092Z,70.09
2017-08-05T08:55:04.545Z,70.00
2017-08-05T08:57:30.952Z,69.91
2017-08-05T08:59:57.564Z,69.98
2017-08-05T09:02:25.137Z,69.86
2017-08-05T09:04:51.623Z,69.85
2017-08-05T09:07:19.030Z,69.86
2017-08-05T09:09:45.465Z,69.73
2017-08-05T09:12:11.999Z,69.78
2017-08-05T09:14:38.456Z,69.75
2017-08-05T09:17:04.925Z,69.69
2017-08-05T09:19:31.462Z,69.72
2017-08-05T09:21:57.919Z,69.66
2017-08-05T09:24:24.390Z,69.67
2017-08-05T09:26:51.005Z,69.73
2017-08-05T09:29:18.225Z,69.64
2017-08-05T09:31:44.661Z,69.68
2017-08-05T09:34:11.088Z,69.59
2017-08-05T09:36:37.663Z,69.51
2017-08-05T09:39:04.172Z,69.45
2017-08-05T09:41:30.635Z,69.45
2017-08-05T09:43:57.117Z,69.47
2017-08-05T09:46:23.568Z,69.41
2017-08-05T09:48:50.020Z,69.35
2017-08-05T09:51:17.314Z,69.32
2017-08-05T09:53:43.725Z,69.28
2017-08-05T09:56:11.599Z,69.20
2017-08-05T09:58:38.405Z,69.20
2017-08-05T10:01:04.962Z,69.11
2017-08-05T10:03:31.358Z,69.12
2017-08-05T10:05:57.950Z,69.07
2017-08-05T10:08:24.365Z,68.95
2017-08-05T10:10:50.827Z,68.81
2017-08-05T10:13:17.410Z,68.89
2017-08-05T10:15:43.885Z,68.80
2017-08-05T10:18:10.326Z,68.74
2017-08-05T10:20:36.771Z,68.76
2017-08-05T10:23:03.270Z,68.80
2017-08-05T10:25:29.690Z,68.65
2017-08-05T10:27:56.072Z,68.53
2017-08-05T10:30:22.617Z,68.29
2017-08-05T10:32:49.182Z,68.32
2017-08-05T10:35:15.655Z,68.21
2017-08-05T10:37:42.146Z,68.15
2017-08-05T10:40:08.579Z,68.00
2017-08-05T10:42:35.059Z,67.74
2017-08-05T10:45:01.539Z,67.84
2017-08-05T10:47:28.117Z,67.72
2017-08-05T10:49:54.557Z,67.68
2017-08-05T10:52:20.946Z,67.41
2017-08-05T10:54:47.483Z,67.31
2017-08-05T10:57:13.896Z,67.10
2017-08-05T10:59:40.374Z,67.29
2017-08-05T11:02:07.458Z,67.21
2017-08-05T11:04:33.854Z,67.14
2017-08-05T11:07:00.343Z,67.05
2017-08-05T11:09:26.807Z,67.12
2017-08-05T11:11:53.352Z,66.93
2017-08-05T11:14:20.093Z,66.79
2017-08-05T11:16:46.577Z,66.69
2017-08-05T11:19:13.051Z,66.46
2017-08-05T11:21:39.470Z,66.48
2017-08-05T11:24:06.314Z,66.23
2017-08-05T11:26:32.721Z,65.95
2017-08-05T11:28:59.216Z,66.02
2017-08-05T11:31:25.970Z,66.17
2017-08-05T11:33:52.507Z,65.61
2017-08-05T11:36:19.004Z,65.58
2017-08-05T11:38:46.452Z,66.06
2017-08-05T11:41:13.758Z,65.50
2017-08-05T11:43:40.254Z,65.35
2017-08-05T11:46:06.710Z,65.78
2017-08-05T11:48:33.121Z,65.81
2017-08-05T11:50:59.814Z,65.58
2017-08-05T11:53:26.312Z,65.79
2017-08-05T11:55:52.764Z,65.62
2017-08-05T11:58:19.188Z,64.96
2017-08-05T12:00:45.613Z,65.50
2017-08-05T12:03:13.034Z,65.36
2017-08-05T12:05:39.712Z,65.06
2017-08-05T12:08:06.128Z,65.09
2017-08-05T12:10:32.595Z,65.07
2017-08-05T12:13:02.699Z,65.00
2017-08-05T12:15:29.124Z,65.01
2017-08-05T12:17:55.676Z,64.84
2017-08-05T12:20:22.098Z,64.99
2017-08-05T12:22:48.627Z,65.02
2017-08-05T12:25:15.078Z,64.78
2017-08-05T12:27:42.354Z,64.45
2017-08-05T12:30:08.782Z,64.18
2017-08-05T12:32:35.224Z,63.55
2017-08-05T12:35:01.776Z,63.51
2017-08-05T12:37:28.263Z,63.53
2017-08-05T12:39:55.316Z,63.25
2017-08-05T12:42:21.775Z,63.34
2017-08-05T12:44:48.237Z,62.92
2017-08-05T12:47:14.705Z,63.42
2017-08-05T12:49:42.121Z,63.22
2017-08-05T12:52:08.995Z,63.00
2017-08-05T12:54:35.432Z,63.12
2017-08-05T12:57:01.958Z,63.08
2017-08-05T12:59:29.427Z,62.97
2017-08-05T13:01:55.932Z,62.92
2017-08-05T13:04:22.353Z,62.50
2017-08-05T13:06:48.743Z,62.65
2017-08-05T13:09:15.331Z,62.73
2017-08-05T13:11:41.797Z,62.70
2017-08-05T13:14:08.228Z,62.53
2017-08-05T13:16:34.711Z,62.15
2017-08-05T13:19:01.150Z,62.23
2017-08-05T13:21:27.670Z,62.26
2017-08-05T13:23:54.142Z,62.21
2017-08-05T13:26:21.674Z,61.92
2017-08-05T13:28:48.163Z,61.24
2017-08-05T13:31:14.619Z,61.00
2017-08-05T13:33:41.027Z,61.78
2017-08-05T13:36:07.561Z,60.99
2017-08-05T13:38:34.904Z,61.21
2017-08-05T13:41:01.402Z,61.52
2017-08-05T13:43:27.877Z,61.42
2017-08-05T13:45:54.302Z,61.02
2017-08-05T13:48:21.578Z,60.70
2017-08-05T13:50:48.058Z,60.81
2017-08-05T13:53:15.366Z,60.03
2017-08-05T13:55:41.798Z,60.67
2017-08-05T13:58:08.317Z,60.35
2017-08-05T14:00:34.833Z,60.80
2017-08-05T14:03:02.328Z,60.88
2017-08-05T14:05:28.754Z,60.76
2017-08-05T14:07:55.213Z,60.77
2017-08-05T14:10:21.625Z,60.25
2017-08-05T14:12:48.093Z,60.30
2017-08-05T14:15:14.529Z,59.50
2017-08-05T14:17:41.252Z,60.10
2017-08-05T14:20:07.722Z,59.70
2017-08-05T14:22:34.188Z,60.33
2017-08-05T14:25:00.698Z,60.17
2017-08-05T14:27:28.149Z,60.20
2017-08-05T14:29:55.177Z,60.57
2017-08-05T14:32:21.666Z,60.77
2017-08-05T14:34:48.106Z,60.17
2017-08-05T14:37:14.646Z,60.53
2017-08-05T14:39:41.049Z,60.24
2017-08-05T14:42:07.527Z,60.45
2017-08-05T14:44:34.020Z,60.14
2017-08-05T14:47:00.474Z,60.20
2017-08-05T14:49:27.720Z,59.96
2017-08-05T14:51:54.251Z,60.16
2017-08-05T14:54:20.713Z,59.38
2017-08-05T14:56:47.548Z,60.16
2017-08-05T14:59:14.017Z,60.14
2017-08-05T15:01:40.451Z,59.38
2017-08-05T15:04:07.044Z,59.55
2017-08-05T15:06:33.425Z,60.06
2017-08-05T15:08:59.843Z,59.76
2017-08-05T15:11:26.393Z,60.08
2017-08-05T15:13:52.859Z,59.52
2017-08-05T15:16:19.292Z,60.00
2017-08-05T15:18:45.803Z,59.55
2017-08-05T15:21:12.227Z,59.62
2017-08-05T15:23:38.641Z,59.53
2017-08-05T15:26:05.149Z,59.29
2017-08-05T15:28:32.429Z,59.42
2017-08-05T15:30:58.854Z,59.45
2017-08-05T15:33:25.323Z,59.42
2017-08-05T15:35:51.743Z,59.27
2017-08-05T15:38:18.184Z,59.27
2017-08-05T15:40:44.698Z,59.03
2017-08-05T15:43:11.157Z,58.87
2017-08-05T15:45:37.576Z,59.29
2017-08-05T15:48:04.081Z,59.05
2017-08-05T15:50:30.578Z,58.89
2017-08-05T15:53:00.933Z,58.38
2017-08-05T15:55:27.317Z,58.89
2017-08-05T15:57:53.806Z,58.41
2017-08-05T16:00:20.218Z,58.43
2017-08-05T16:02:46.650Z,58.83
2017-08-05T16:05:13.197Z,58.44
2017-08-05T16:07:39.620Z,57.46
2017-08-05T16:10:06.005Z,58.68
2017-08-05T16:12:32.521Z,58.30
2017-08-05T16:14:58.984Z,58.50
2017-08-05T16:17:25.433Z,58.85
2017-08-05T16:19:51.911Z,58.94
2017-08-05T16:22:18.384Z,58.97
2017-08-05T16:24:45.666Z,59.44
2017-08-05T16:27:12.172Z,59.26
2017-08-05T16:29:38.584Z,59.49
2017-08-05T16:32:04.994Z,59.54
2017-08-05T16:34:31.454Z,59.68
2017-08-05T16:36:57.899Z,59.95
2017-08-05T16:39:24.299Z,59.74
2017-08-05T16:41:50.918Z,59.52
2017-08-05T16:44:17.366Z,59.84
2017-08-05T16:46:43.767Z,60.51
2017-08-05T16:49:10.258Z,60.54
2017-08-05T16:51:36.752Z,60.05
2017-08-05T16:54:03.191Z,60.45
2017-08-05T16:56:29.597Z,60.46
2017-08-05T16:58:56.083Z,60.72
2017-08-05T17:01:22.558Z,60.61
2017-08-05T17:03:49.091Z,60.76
2017-08-05T17:06:15.664Z,60.53
2017-08-05T17:08:42.080Z,60.94
2017-08-05T17:11:08.529Z,60.72
2017-08-05T17:13:35.066Z,60.92
2017-08-05T17:16:01.507Z,61.17
2017-08-05T17:18:28.000Z,60.95
2017-08-05T17:20:54.394Z,61.37
2017-08-05T17:23:20.910Z,61.12
2017-08-05T17:25:47.370Z,61.43
2017-08-05T17:28:13.801Z,61.34
2017-08-05T17:30:40.205Z,61.18
2017-08-05T17:33:06.691Z,61.36
2017-08-05T17:35:33.121Z,61.16
2017-08-05T17:37:59.728Z,60.79
2017-08-05T17:40:26.245Z,60.83
2017-08-05T17:42:52.690Z,61.04
2017-08-05T17:45:19.163Z,60.93
2017-08-05T17:47:45.600Z,60.93
2017-08-05T17:50:12.070Z,61.08
2017-08-05T17:52:38.471Z,61.00
2017-08-05T17:55:04.935Z,60.38
2017-08-05T17:57:31.397Z,60.71
2017-08-05T17:59:57.818Z,59.97
2017-08-05T18:02:24.297Z,60.26
2017-08-05T18:04:50.722Z,60.49
2017-08-05T18:07:17.221Z,60.55
2017-08-05T18:09:43.685Z,60.37
2017-08-05T18:12:10.109Z,60.48
2017-08-05T18:14:36.588Z,60.54
2017-08-05T18:17:03.052Z,60.43
2017-08-05T18:19:29.516Z,60.86
2017-08-05T18:21:55.950Z,60.42
2017-08-05T18:24:22.457Z,60.71
2017-08-05T18:26:48.889Z,60.44
2017-08-05T18:29:15.329Z,60.48
2017-08-05T18:31:41.788Z,60.31
2017-08-05T18:34:08.217Z,60.13
2017-08-05T18:36:34.646Z,60.33
2017-08-05T18:39:01.146Z,59.92
2017-08-05T18:41:27.544Z,60.33
2017-08-05T18:43:54.049Z,59.48
2017-08-05T18:46:20.488Z,59.83
2017-08-05T18:48:46.953Z,60.41
2017-08-05T18:51:13.376Z,60.50
2017-08-05T18:53:39.870Z,60.16
2017-08-05T18:56:06.280Z,60.28
2017-08-05T18:58:32.710Z,60.27
2017-08-05T19:00:59.237Z,60.36
2017-08-05T19:03:25.646Z,60.49
2017-08-05T19:05:52.069Z,60.68
2017-08-05T19:08:18.549Z,60.96
2017-08-05T19:10:45.017Z,60.61
2017-08-05T19:13:11.449Z,60.87
2017-08-05T19:15:38.005Z,61.04
2017-08-05T19:18:04.453Z,61.16
2017-08-05T19:20:30.910Z,61.00
2017-08-05T19:25:28.824Z,61.18
2017-08-05T19:27:55.301Z,61.44
2017-08-05T19:30:21.713Z,61.33
2017-08-05T19:32:48.212Z,61.44
2017-08-05T19:35:14.650Z,61.60
2017-08-05T19:37:41.098Z,61.75
2017-08-05T19:40:07.623Z,61.86
2017-08-05T19:42:34.040Z,62.06
2017-08-05T19:45:00.497Z,62.15
2017-08-05T19:47:26.969Z,62.24
2017-08-05T19:49:53.451Z,62.31
2017-08-05T19:52:19.860Z,62.45
2017-08-05T19:54:46.292Z,62.62
2017-08-05T19:57:12.782Z,62.67
2017-08-05T19:59:39.201Z,62.81
2017-08-05T20:02:05.667Z,62.92
2017-08-05T20:04:32.105Z,63.08
2017-08-05T20:06:58.544Z,63.02
2017-08-05T20:09:25.037Z,63.19
2017-08-05T20:11:51.517Z,63.13
2017-08-05T20:14:17.969Z,63.25
2017-08-05T20:16:44.437Z,63.38
2017-08-05T20:19:10.880Z,63.41
2017-08-05T20:21:37.311Z,63.53
2017-08-05T20:24:03.789Z,63.70
2017-08-05T20:26:30.202Z,63.66
2017-08-05T20:28:56.606Z,63.83
2017-08-05T20:31:23.097Z,63.97
2017-08-05T20:33:49.531Z,64.08
2017-08-05T20:36:15.981Z,64.14
2017-08-05T20:38:42.477Z,64.21
2017-08-05T20:41:08.951Z,64.34
2017-08-05T20:43:35.423Z,64.37
2017-08-05T20:46:01.837Z,64.51
2017-08-05T20:48:28.242Z,64.57
2017-08-05T20:50:54.717Z,64.66
2017-08-05T20:53:21.144Z,64.71
2017-08-05T20:55:47.601Z,64.80
2017-08-05T20:58:14.108Z,64.94
2017-08-05T21:00:40.534Z,64.79
2017-08-05T21:03:07.030Z,64.91
2017-08-05T21:05:33.538Z,65.00
2017-08-05T21:07:59.943Z,64.99
2017-08-05T21:10:26.387Z,65.08
2017-08-05T21:12:52.849Z,64.96
2017-08-05T21:15:19.344Z,65.09
2017-08-05T21:17:45.848Z,65.11
2017-08-05T21:20:12.332Z,65.30
2017-08-05T21:22:38.856Z,65.20
2017-08-05T21:25:05.287Z,65.26
2017-08-05T21:27:31.759Z,65.32
2017-08-05T21:29:58.208Z,65.40
2017-08-05T21:32:24.638Z,65.43
2017-08-05T21:34:51.119Z,65.44
2017-08-05T21:37:17.538Z,65.42
2017-08-05T21:39:44.014Z,65.58
2017-08-05T21:42:10.457Z,65.50
2017-08-05T21:44:36.928Z,65.55
2017-08-05T21:47:03.356Z,65.55
2017-08-05T21:49:29.884Z,65.70
2017-08-05T21:51:56.341Z,65.57
2017-08-05T21:54:22.815Z,65.77
2017-08-05T21:56:49.243Z,65.89
2017-08-05T21:59:15.747Z,65.87
2017-08-05T22:01:42.199Z,66.09
2017-08-05T22:04:08.588Z,66.01
2017-08-05T22:06:35.071Z,66.09
2017-08-05T22:09:01.530Z,66.12
2017-08-05T22:11:28.089Z,66.16
2017-08-05T22:13:54.516Z,66.25
2017-08-05T22:16:20.969Z,66.36
2017-08-05T22:18:47.454Z,66.51
2017-08-05T22:21:13.874Z,66.52
2017-08-05T22:23:40.350Z,66.71
2017-08-05T22:26:06.830Z,66.55
2017-08-05T22:28:33.308Z,66.63
2017-08-05T22:30:59.717Z,66.72
2017-08-05T22:33:26.117Z,66.61
2017-08-05T22:35:52.600Z,66.64
2017-08-05T22:38:19.061Z,66.75
2017-08-05T22:40:45.533Z,66.85
2017-08-05T22:43:12.045Z,66.90
2017-08-05T22:45:38.532Z,66.96
2017-08-05T22:48:04.980Z,66.91
2017-08-05T22:50:31.453Z,67.03
2017-08-05T22:52:59.596Z,67.02
2017-08-05T22:55:26.027Z,67.05
2017-08-05T22:57:52.448Z,67.06
2017-08-05T23:00:18.940Z,67.22
2017-08-05T23:02:45.406Z,67.18
2017-08-05T23:05:11.868Z,67.32
2017-08-05T23:07:38.287Z,67.28
2017-08-05T23:10:05.580Z,67.41
2017-08-05T23:12:32.009Z,67.51
2017-08-05T23:14:58.492Z,67.60
2017-08-05T23:17:24.925Z,67.63
2017-08-05T23:19:51.356Z,67.63
2017-08-05T23:22:17.847Z,67.80
2017-08-05T23:24:44.323Z,67.93
2017-08-05T23:27:10.789Z,67.83
2017-08-05T23:29:37.996Z,67.95
2017-08-05T23:32:04.454Z,68.02
2017-08-05T23:34:30.900Z,68.06
2017-08-05T23:36:57.337Z,67.90
2017-08-05T23:39:23.794Z,68.12
2017-08-05T23:41:50.317Z,68.14
2017-08-05T23:44:16.744Z,68.22
2017-08-05T23:46:43.137Z,68.53
2017-08-05T23:49:09.581Z,68.49
2017-08-05T23:51:36.031Z,68.61
2017-08-05T23:54:02.463Z,68.70
2017-08-05T23:56:28.995Z,68.62
2017-08-05T23:58:55.384Z,68.90
